sensor_id;sensor_type;location;lat;lon;timestamp;P1;durP1;ratioP1;P2;durP2;ratioP2
72335;SDS011;62171;48.446;8.834;2022-08-19T00:00:18;15.60;;;12.10;;
72335;SDS011;62171;48.446;8.834;2022-08-19T00:02:44;13.65;;;11.48;;
72335;SDS011;62171;48.446;8.834;2022-08-19T00:05:10;13.52;;;10.90;;
72335;SDS011;62171;48.446;8.834;2022-08-19T00:07:38;13.13;;;10.88;;
72335;SDS011;62171;48.446;8.834;2022-08-19T00:10:06;14.40;;;11.15;;
72335;SDS011;62171;48.446;8.834;2022-08-19T00:12:33;13.07;;;10.80;;
72335;SDS011;62171;48.446;8.834;2022-08-19T00:14:59;14.95;;;11.35;;
72335;SDS011;62171;48.446;8.834;2022-08-19T00:17:24;12.98;;;11.00;;
72335;SDS011;62171;48.446;8.834;2022-08-19T00:19:49;15.23;;;12.23;;
72335;SDS011;62171;48.446;8.834;2022-08-19T00:22:15;14.70;;;11.93;;
72335;SDS011;62171;48.446;8.834;2022-08-19T00:24:42;18.67;;;13.20;;
72335;SDS011;62171;48.446;8.834;2022-08-19T00:27:08;16.33;;;11.80;;
72335;SDS011;62171;48.446;8.834;2022-08-19T00:29:34;18.20;;;11.95;;
72335;SDS011;62171;48.446;8.834;2022-08-19T00:31:59;19.40;;;13.05;;
72335;SDS011;62171;48.446;8.834;2022-08-19T00:34:25;16.05;;;12.43;;
72335;SDS011;62171;48.446;8.834;2022-08-19T00:36:54;17.48;;;12.32;;
72335;SDS011;62171;48.446;8.834;2022-08-19T00:39:20;18.00;;;13.23;;
72335;SDS011;62171;48.446;8.834;2022-08-19T00:41:45;16.58;;;11.63;;
72335;SDS011;62171;48.446;8.834;2022-08-19T00:44:16;14.85;;;12.25;;
72335;SDS011;62171;48.446;8.834;2022-08-19T00:46:47;22.65;;;12.75;;
72335;SDS011;62171;48.446;8.834;2022-08-19T00:49:24;16.85;;;12.60;;
72335;SDS011;62171;48.446;8.834;2022-08-19T00:52:02;17.95;;;12.77;;
72335;SDS011;62171;48.446;8.834;2022-08-19T00:54:31;17.48;;;12.65;;
72335;SDS011;62171;48.446;8.834;2022-08-19T00:56:58;16.75;;;12.73;;
72335;SDS011;62171;48.446;8.834;2022-08-19T00:59:24;19.50;;;13.85;;
72335;SDS011;62171;48.446;8.834;2022-08-19T01:01:50;18.35;;;13.18;;
72335;SDS011;62171;48.446;8.834;2022-08-19T01:04:16;16.02;;;12.63;;
72335;SDS011;62171;48.446;8.834;2022-08-19T01:06:41;18.95;;;14.65;;
72335;SDS011;62171;48.446;8.834;2022-08-19T01:09:07;18.20;;;13.30;;
72335;SDS011;62171;48.446;8.834;2022-08-19T01:11:34;17.30;;;13.07;;
72335;SDS011;62171;48.446;8.834;2022-08-19T01:14:03;17.75;;;12.80;;
72335;SDS011;62171;48.446;8.834;2022-08-19T01:16:29;17.77;;;13.27;;
72335;SDS011;62171;48.446;8.834;2022-08-19T01:18:55;17.27;;;13.52;;
72335;SDS011;62171;48.446;8.834;2022-08-19T01:24:04;17.92;;;13.95;;
72335;SDS011;62171;48.446;8.834;2022-08-19T01:26:29;18.92;;;13.80;;
72335;SDS011;62171;48.446;8.834;2022-08-19T01:28:56;23.20;;;14.68;;
72335;SDS011;62171;48.446;8.834;2022-08-19T01:31:24;20.30;;;15.82;;
72335;SDS011;62171;48.446;8.834;2022-08-19T01:33:52;20.27;;;15.38;;
72335;SDS011;62171;48.446;8.834;2022-08-19T01:36:24;17.73;;;14.45;;
72335;SDS011;62171;48.446;8.834;2022-08-19T01:38:52;20.42;;;14.50;;
72335;SDS011;62171;48.446;8.834;2022-08-19T01:41:18;20.23;;;14.43;;
72335;SDS011;62171;48.446;8.834;2022-08-19T01:43:44;23.98;;;15.07;;
72335;SDS011;62171;48.446;8.834;2022-08-19T01:46:10;18.13;;;14.73;;
72335;SDS011;62171;48.446;8.834;2022-08-19T01:48:37;19.40;;;13.90;;
72335;SDS011;62171;48.446;8.834;2022-08-19T01:51:04;19.33;;;14.52;;
72335;SDS011;62171;48.446;8.834;2022-08-19T01:53:30;20.45;;;14.20;;
72335;SDS011;62171;48.446;8.834;2022-08-19T01:55:55;22.15;;;14.45;;
72335;SDS011;62171;48.446;8.834;2022-08-19T01:58:22;24.65;;;14.38;;
72335;SDS011;62171;48.446;8.834;2022-08-19T02:00:50;20.95;;;13.60;;
72335;SDS011;62171;48.446;8.834;2022-08-19T02:03:16;24.67;;;15.70;;
72335;SDS011;62171;48.446;8.834;2022-08-19T02:05:41;22.85;;;15.32;;
72335;SDS011;62171;48.446;8.834;2022-08-19T02:08:08;25.50;;;15.95;;
72335;SDS011;62171;48.446;8.834;2022-08-19T02:10:38;24.20;;;16.73;;
72335;SDS011;62171;48.446;8.834;2022-08-19T02:13:06;23.02;;;15.93;;
72335;SDS011;62171;48.446;8.834;2022-08-19T02:15:31;22.00;;;15.48;;
72335;SDS011;62171;48.446;8.834;2022-08-19T02:17:57;25.27;;;16.05;;
72335;SDS011;62171;48.446;8.834;2022-08-19T02:20:23;24.52;;;15.95;;
72335;SDS011;62171;48.446;8.834;2022-08-19T02:22:49;22.23;;;14.73;;
72335;SDS011;62171;48.446;8.834;2022-08-19T02:25:14;24.77;;;14.98;;
72335;SDS011;62171;48.446;8.834;2022-08-19T02:27:40;22.63;;;14.80;;
72335;SDS011;62171;48.446;8.834;2022-08-19T02:30:07;22.45;;;13.98;;
72335;SDS011;62171;48.446;8.834;2022-08-19T02:32:34;24.33;;;14.82;;
72335;SDS011;62171;48.446;8.834;2022-08-19T02:35:00;23.73;;;14.75;;
72335;SDS011;62171;48.446;8.834;2022-08-19T02:37:26;23.92;;;15.10;;
72335;SDS011;62171;48.446;8.834;2022-08-19T02:40:10;23.75;;;15.07;;
72335;SDS011;62171;48.446;8.834;2022-08-19T02:42:36;22.98;;;15.45;;
72335;SDS011;62171;48.446;8.834;2022-08-19T02:45:01;25.55;;;15.18;;
72335;SDS011;62171;48.446;8.834;2022-08-19T02:47:27;23.33;;;14.98;;
72335;SDS011;62171;48.446;8.834;2022-08-19T02:49:52;24.55;;;14.82;;
72335;SDS011;62171;48.446;8.834;2022-08-19T02:52:18;23.17;;;15.10;;
72335;SDS011;62171;48.446;8.834;2022-08-19T02:54:43;26.38;;;16.40;;
72335;SDS011;62171;48.446;8.834;2022-08-19T02:57:09;28.42;;;18.02;;
72335;SDS011;62171;48.446;8.834;2022-08-19T02:59:34;30.63;;;18.50;;
72335;SDS011;62171;48.446;8.834;2022-08-19T03:02:00;31.48;;;19.15;;
72335;SDS011;62171;48.446;8.834;2022-08-19T03:04:26;26.55;;;17.10;;
72335;SDS011;62171;48.446;8.834;2022-08-19T03:06:51;30.67;;;17.98;;
72335;SDS011;62171;48.446;8.834;2022-08-19T03:09:17;29.05;;;17.13;;
72335;SDS011;62171;48.446;8.834;2022-08-19T03:11:44;25.45;;;16.45;;
72335;SDS011;62171;48.446;8.834;2022-08-19T03:14:11;23.90;;;15.90;;
72335;SDS011;62171;48.446;8.834;2022-08-19T03:16:45;29.67;;;17.58;;
72335;SDS011;62171;48.446;8.834;2022-08-19T03:19:12;28.50;;;16.77;;
72335;SDS011;62171;48.446;8.834;2022-08-19T03:21:39;28.48;;;15.98;;
72335;SDS011;62171;48.446;8.834;2022-08-19T03:24:06;23.50;;;15.43;;
72335;SDS011;62171;48.446;8.834;2022-08-19T03:26:33;24.88;;;14.85;;
72335;SDS011;62171;48.446;8.834;2022-08-19T03:29:03;25.63;;;15.55;;
72335;SDS011;62171;48.446;8.834;2022-08-19T03:31:29;25.80;;;16.05;;
72335;SDS011;62171;48.446;8.834;2022-08-19T03:33:56;26.85;;;15.40;;
72335;SDS011;62171;48.446;8.834;2022-08-19T03:36:22;25.17;;;15.55;;
72335;SDS011;62171;48.446;8.834;2022-08-19T03:38:51;30.30;;;16.77;;
72335;SDS011;62171;48.446;8.834;2022-08-19T03:41:26;27.13;;;15.57;;
72335;SDS011;62171;48.446;8.834;2022-08-19T03:43:53;28.90;;;16.83;;
72335;SDS011;62171;48.446;8.834;2022-08-19T03:46:23;31.55;;;18.50;;
72335;SDS011;62171;48.446;8.834;2022-08-19T03:48:54;27.02;;;17.05;;
72335;SDS011;62171;48.446;8.834;2022-08-19T03:51:28;27.00;;;17.60;;
72335;SDS011;62171;48.446;8.834;2022-08-19T03:53:56;33.40;;;18.00;;
72335;SDS011;62171;48.446;8.834;2022-08-19T03:56:23;26.98;;;16.50;;
72335;SDS011;62171;48.446;8.834;2022-08-19T03:58:53;30.17;;;16.95;;
72335;SDS011;62171;48.446;8.834;2022-08-19T04:01:21;30.20;;;17.40;;
72335;SDS011;62171;48.446;8.834;2022-08-19T04:03:48;27.63;;;15.43;;
72335;SDS011;62171;48.446;8.834;2022-08-19T04:06:21;28.83;;;16.70;;
72335;SDS011;62171;48.446;8.834;2022-08-19T04:08:49;30.27;;;16.58;;
72335;SDS011;62171;48.446;8.834;2022-08-19T04:11:17;28.25;;;16.65;;
72335;SDS011;62171;48.446;8.834;2022-08-19T04:13:48;25.45;;;15.15;;
72335;SDS011;62171;48.446;8.834;2022-08-19T04:16:16;28.27;;;17.02;;
72335;SDS011;62171;48.446;8.834;2022-08-19T04:18:45;35.03;;;16.60;;
72335;SDS011;62171;48.446;8.834;2022-08-19T04:21:15;26.83;;;14.63;;
72335;SDS011;62171;48.446;8.834;2022-08-19T04:23:46;29.50;;;16.17;;
72335;SDS011;62171;48.446;8.834;2022-08-19T04:26:13;29.00;;;16.60;;
72335;SDS011;62171;48.446;8.834;2022-08-19T04:28:44;33.83;;;18.70;;
72335;SDS011;62171;48.446;8.834;2022-08-19T04:31:18;29.65;;;17.63;;
72335;SDS011;62171;48.446;8.834;2022-08-19T04:33:45;30.50;;;16.98;;
72335;SDS011;62171;48.446;8.834;2022-08-19T04:36:18;29.27;;;17.92;;
72335;SDS011;62171;48.446;8.834;2022-08-19T04:38:49;28.77;;;16.73;;
72335;SDS011;62171;48.446;8.834;2022-08-19T04:41:15;29.33;;;17.17;;
72335;SDS011;62171;48.446;8.834;2022-08-19T04:43:59;26.85;;;16.20;;
72335;SDS011;62171;48.446;8.834;2022-08-19T04:46:25;27.88;;;17.08;;
72335;SDS011;62171;48.446;8.834;2022-08-19T04:48:51;25.90;;;16.63;;
72335;SDS011;62171;48.446;8.834;2022-08-19T04:51:17;28.60;;;16.58;;
72335;SDS011;62171;48.446;8.834;2022-08-19T04:53:43;29.58;;;16.83;;
72335;SDS011;62171;48.446;8.834;2022-08-19T04:56:09;27.50;;;16.85;;
72335;SDS011;62171;48.446;8.834;2022-08-19T04:58:37;26.60;;;16.70;;
72335;SDS011;62171;48.446;8.834;2022-08-19T05:01:04;26.50;;;16.10;;
72335;SDS011;62171;48.446;8.834;2022-08-19T05:03:30;33.70;;;16.50;;
72335;SDS011;62171;48.446;8.834;2022-08-19T05:05:58;29.75;;;16.63;;
72335;SDS011;62171;48.446;8.834;2022-08-19T05:08:29;28.90;;;17.10;;
72335;SDS011;62171;48.446;8.834;2022-08-19T05:10:55;28.33;;;16.77;;
72335;SDS011;62171;48.446;8.834;2022-08-19T05:13:22;29.73;;;16.65;;
72335;SDS011;62171;48.446;8.834;2022-08-19T05:15:57;29.73;;;15.65;;
72335;SDS011;62171;48.446;8.834;2022-08-19T05:18:23;29.15;;;16.48;;
72335;SDS011;62171;48.446;8.834;2022-08-19T05:21:08;26.90;;;16.73;;
72335;SDS011;62171;48.446;8.834;2022-08-19T05:23:53;30.83;;;16.92;;
72335;SDS011;62171;48.446;8.834;2022-08-19T05:26:19;32.10;;;17.75;;
72335;SDS011;62171;48.446;8.834;2022-08-19T05:28:44;30.45;;;17.63;;
72335;SDS011;62171;48.446;8.834;2022-08-19T05:31:10;33.13;;;19.20;;
72335;SDS011;62171;48.446;8.834;2022-08-19T05:33:35;32.78;;;18.55;;
72335;SDS011;62171;48.446;8.834;2022-08-19T05:36:01;37.53;;;18.23;;
72335;SDS011;62171;48.446;8.834;2022-08-19T05:38:27;32.45;;;17.52;;
72335;SDS011;62171;48.446;8.834;2022-08-19T05:40:55;29.83;;;17.02;;
72335;SDS011;62171;48.446;8.834;2022-08-19T05:43:20;31.95;;;16.98;;
72335;SDS011;62171;48.446;8.834;2022-08-19T05:45:45;30.30;;;17.45;;
72335;SDS011;62171;48.446;8.834;2022-08-19T05:48:11;34.38;;;18.08;;
72335;SDS011;62171;48.446;8.834;2022-08-19T05:50:37;32.10;;;17.77;;
72335;SDS011;62171;48.446;8.834;2022-08-19T05:53:04;38.13;;;20.73;;
72335;SDS011;62171;48.446;8.834;2022-08-19T05:55:30;34.58;;;18.33;;
72335;SDS011;62171;48.446;8.834;2022-08-19T05:57:56;33.15;;;18.48;;
72335;SDS011;62171;48.446;8.834;2022-08-19T06:00:22;30.52;;;18.50;;
72335;SDS011;62171;48.446;8.834;2022-08-19T06:02:47;32.25;;;18.98;;
72335;SDS011;62171;48.446;8.834;2022-08-19T06:05:13;32.75;;;18.83;;
72335;SDS011;62171;48.446;8.834;2022-08-19T06:07:38;32.95;;;18.67;;
72335;SDS011;62171;48.446;8.834;2022-08-19T06:10:05;34.03;;;18.38;;
72335;SDS011;62171;48.446;8.834;2022-08-19T06:12:33;34.58;;;19.05;;
72335;SDS011;62171;48.446;8.834;2022-08-19T06:15:01;32.03;;;18.40;;
72335;SDS011;62171;48.446;8.834;2022-08-19T06:17:29;32.33;;;19.15;;
72335;SDS011;62171;48.446;8.834;2022-08-19T06:19:55;29.05;;;18.10;;
72335;SDS011;62171;48.446;8.834;2022-08-19T06:22:21;30.42;;;18.98;;
72335;SDS011;62171;48.446;8.834;2022-08-19T06:24:47;25.70;;;16.83;;
72335;SDS011;62171;48.446;8.834;2022-08-19T06:27:13;32.55;;;18.33;;
72335;SDS011;62171;48.446;8.834;2022-08-19T06:29:38;31.15;;;18.05;;
72335;SDS011;62171;48.446;8.834;2022-08-19T06:32:04;34.78;;;19.20;;
72335;SDS011;62171;48.446;8.834;2022-08-19T06:34:31;33.78;;;18.88;;
72335;SDS011;62171;48.446;8.834;2022-08-19T06:36:58;31.60;;;18.02;;
72335;SDS011;62171;48.446;8.834;2022-08-19T06:39:28;27.02;;;17.63;;
72335;SDS011;62171;48.446;8.834;2022-08-19T06:41:57;31.83;;;19.10;;
72335;SDS011;62171;48.446;8.834;2022-08-19T06:44:26;29.45;;;17.75;;
72335;SDS011;62171;48.446;8.834;2022-08-19T06:46:53;29.73;;;18.73;;
72335;SDS011;62171;48.446;8.834;2022-08-19T06:49:19;31.13;;;18.58;;
72335;SDS011;62171;48.446;8.834;2022-08-19T06:51:45;30.45;;;18.23;;
72335;SDS011;62171;48.446;8.834;2022-08-19T06:54:12;30.63;;;18.38;;
72335;SDS011;62171;48.446;8.834;2022-08-19T06:56:39;29.73;;;17.90;;
72335;SDS011;62171;48.446;8.834;2022-08-19T06:59:16;27.67;;;18.35;;
72335;SDS011;62171;48.446;8.834;2022-08-19T07:01:47;27.85;;;17.50;;
72335;SDS011;62171;48.446;8.834;2022-08-19T07:04:15;31.50;;;18.75;;
72335;SDS011;62171;48.446;8.834;2022-08-19T07:06:43;26.23;;;15.98;;
72335;SDS011;62171;48.446;8.834;2022-08-19T07:09:09;29.42;;;16.70;;
72335;SDS011;62171;48.446;8.834;2022-08-19T07:11:36;29.20;;;17.40;;
72335;SDS011;62171;48.446;8.834;2022-08-19T07:14:02;34.03;;;21.13;;
72335;SDS011;62171;48.446;8.834;2022-08-19T07:16:28;31.63;;;19.55;;
72335;SDS011;62171;48.446;8.834;2022-08-19T07:18:54;28.58;;;18.38;;
72335;SDS011;62171;48.446;8.834;2022-08-19T07:21:23;28.60;;;18.85;;
72335;SDS011;62171;48.446;8.834;2022-08-19T07:23:53;25.15;;;17.27;;
72335;SDS011;62171;48.446;8.834;2022-08-19T07:26:30;27.45;;;18.20;;
72335;SDS011;62171;48.446;8.834;2022-08-19T07:28:59;26.50;;;16.42;;
72335;SDS011;62171;48.446;8.834;2022-08-19T07:31:26;26.20;;;17.80;;
72335;SDS011;62171;48.446;8.834;2022-08-19T07:33:53;26.50;;;17.98;;
72335;SDS011;62171;48.446;8.834;2022-08-19T07:36:21;31.02;;;18.25;;
72335;SDS011;62171;48.446;8.834;2022-08-19T07:38:50;28.42;;;18.40;;
72335;SDS011;62171;48.446;8.834;2022-08-19T07:41:20;29.30;;;18.50;;
72335;SDS011;62171;48.446;8.834;2022-08-19T07:43:49;32.50;;;19.35;;
72335;SDS011;62171;48.446;8.834;2022-08-19T07:46:15;31.63;;;19.38;;
72335;SDS011;62171;48.446;8.834;2022-08-19T07:48:42;30.23;;;18.50;;
72335;SDS011;62171;48.446;8.834;2022-08-19T07:51:13;30.77;;;18.67;;
72335;SDS011;62171;48.446;8.834;2022-08-19T07:53:40;30.25;;;20.48;;
72335;SDS011;62171;48.446;8.834;2022-08-19T07:56:06;27.80;;;17.92;;
72335;SDS011;62171;48.446;8.834;2022-08-19T07:58:33;29.55;;;19.05;;
72335;SDS011;62171;48.446;8.834;2022-08-19T08:01:01;29.77;;;19.52;;
72335;SDS011;62171;48.446;8.834;2022-08-19T08:03:28;29.60;;;19.52;;
72335;SDS011;62171;48.446;8.834;2022-08-19T08:06:13;28.52;;;19.05;;
72335;SDS011;62171;48.446;8.834;2022-08-19T08:08:58;28.88;;;17.10;;
72335;SDS011;62171;48.446;8.834;2022-08-19T08:11:40;31.05;;;19.25;;
72335;SDS011;62171;48.446;8.834;2022-08-19T08:14:13;30.55;;;18.67;;
72335;SDS011;62171;48.446;8.834;2022-08-19T08:16:41;25.95;;;17.40;;
72335;SDS011;62171;48.446;8.834;2022-08-19T08:19:09;29.17;;;18.60;;
72335;SDS011;62171;48.446;8.834;2022-08-19T08:21:34;28.00;;;18.58;;
72335;SDS011;62171;48.446;8.834;2022-08-19T08:24:00;27.10;;;18.42;;
72335;SDS011;62171;48.446;8.834;2022-08-19T08:26:25;28.65;;;18.77;;
72335;SDS011;62171;48.446;8.834;2022-08-19T08:28:51;29.77;;;18.33;;
72335;SDS011;62171;48.446;8.834;2022-08-19T08:31:17;28.95;;;19.08;;
72335;SDS011;62171;48.446;8.834;2022-08-19T08:33:47;28.42;;;18.30;;
72335;SDS011;62171;48.446;8.834;2022-08-19T08:36:13;26.55;;;17.35;;
72335;SDS011;62171;48.446;8.834;2022-08-19T08:38:38;28.60;;;18.35;;
72335;SDS011;62171;48.446;8.834;2022-08-19T08:41:08;27.15;;;17.70;;
72335;SDS011;62171;48.446;8.834;2022-08-19T08:43:53;23.77;;;16.38;;
72335;SDS011;62171;48.446;8.834;2022-08-19T08:48:54;28.40;;;17.65;;
72335;SDS011;62171;48.446;8.834;2022-08-19T08:51:29;23.75;;;16.13;;
72335;SDS011;62171;48.446;8.834;2022-08-19T08:54:00;28.15;;;17.25;;
72335;SDS011;62171;48.446;8.834;2022-08-19T08:56:28;26.42;;;17.60;;
72335;SDS011;62171;48.446;8.834;2022-08-19T08:58:58;27.52;;;18.55;;
72335;SDS011;62171;48.446;8.834;2022-08-19T09:01:27;27.65;;;19.05;;
72335;SDS011;62171;48.446;8.834;2022-08-19T09:03:52;25.80;;;16.85;;
72335;SDS011;62171;48.446;8.834;2022-08-19T09:06:22;26.88;;;18.23;;
72335;SDS011;62171;48.446;8.834;2022-08-19T09:16:58;25.75;;;16.23;;
72335;SDS011;62171;48.446;8.834;2022-08-19T09:19:24;18.50;;;13.98;;
72335;SDS011;62171;48.446;8.834;2022-08-19T09:21:50;19.33;;;14.10;;
72335;SDS011;62171;48.446;8.834;2022-08-19T09:24:15;22.45;;;15.40;;
72335;SDS011;62171;48.446;8.834;2022-08-19T09:26:41;22.77;;;16.13;;
72335;SDS011;62171;48.446;8.834;2022-08-19T09:29:08;22.42;;;15.60;;
72335;SDS011;62171;48.446;8.834;2022-08-19T09:31:34;18.67;;;13.00;;
72335;SDS011;62171;48.446;8.834;2022-08-19T09:34:00;15.68;;;12.57;;
72335;SDS011;62171;48.446;8.834;2022-08-19T09:36:29;16.80;;;12.30;;
72335;SDS011;62171;48.446;8.834;2022-08-19T09:38:58;16.23;;;11.38;;
72335;SDS011;62171;48.446;8.834;2022-08-19T09:41:25;15.32;;;12.07;;
72335;SDS011;62171;48.446;8.834;2022-08-19T09:43:52;17.92;;;12.27;;
72335;SDS011;62171;48.446;8.834;2022-08-19T09:46:21;16.77;;;12.70;;
72335;SDS011;62171;48.446;8.834;2022-08-19T09:48:47;16.25;;;12.27;;
72335;SDS011;62171;48.446;8.834;2022-08-19T09:51:18;20.70;;;12.90;;
72335;SDS011;62171;48.446;8.834;2022-08-19T09:53:46;15.80;;;12.23;;
72335;SDS011;62171;48.446;8.834;2022-08-19T09:56:15;15.40;;;12.63;;
72335;SDS011;62171;48.446;8.834;2022-08-19T09:58:42;16.40;;;11.82;;
72335;SDS011;62171;48.446;8.834;2022-08-19T10:01:08;16.08;;;12.00;;
72335;SDS011;62171;48.446;8.834;2022-08-19T10:03:35;17.83;;;12.98;;
72335;SDS011;62171;48.446;8.834;2022-08-19T10:06:02;16.45;;;11.90;;
72335;SDS011;62171;48.446;8.834;2022-08-19T10:08:38;15.35;;;11.98;;
72335;SDS011;62171;48.446;8.834;2022-08-19T10:11:04;14.70;;;11.93;;
72335;SDS011;62171;48.446;8.834;2022-08-19T10:13:31;14.98;;;11.90;;
72335;SDS011;62171;48.446;8.834;2022-08-19T10:16:07;16.88;;;12.00;;
72335;SDS011;62171;48.446;8.834;2022-08-19T10:18:38;19.15;;;11.27;;
72335;SDS011;62171;48.446;8.834;2022-08-19T10:21:15;16.33;;;11.45;;
72335;SDS011;62171;48.446;8.834;2022-08-19T10:23:44;15.05;;;11.23;;
72335;SDS011;62171;48.446;8.834;2022-08-19T10:26:15;14.38;;;11.73;;
72335;SDS011;62171;48.446;8.834;2022-08-19T10:28:44;12.98;;;10.88;;
72335;SDS011;62171;48.446;8.834;2022-08-19T10:31:14;13.85;;;10.93;;
72335;SDS011;62171;48.446;8.834;2022-08-19T10:33:42;14.57;;;11.65;;
72335;SDS011;62171;48.446;8.834;2022-08-19T10:36:15;14.68;;;11.65;;
72335;SDS011;62171;48.446;8.834;2022-08-19T10:38:44;13.38;;;11.15;;
72335;SDS011;62171;48.446;8.834;2022-08-19T10:41:12;13.48;;;10.93;;
72335;SDS011;62171;48.446;8.834;2022-08-19T10:43:42;17.05;;;11.85;;
72335;SDS011;62171;48.446;8.834;2022-08-19T10:46:11;14.25;;;12.07;;
72335;SDS011;62171;48.446;8.834;2022-08-19T10:48:38;13.13;;;10.68;;
72335;SDS011;62171;48.446;8.834;2022-08-19T10:51:04;13.80;;;11.38;;
72335;SDS011;62171;48.446;8.834;2022-08-19T10:53:49;16.83;;;11.75;;
72335;SDS011;62171;48.446;8.834;2022-08-19T10:56:14;15.48;;;12.40;;
72335;SDS011;62171;48.446;8.834;2022-08-19T10:58:58;15.68;;;12.32;;
72335;SDS011;62171;48.446;8.834;2022-08-19T11:01:25;12.95;;;11.55;;
72335;SDS011;62171;48.446;8.834;2022-08-19T11:03:51;12.63;;;10.18;;
72335;SDS011;62171;48.446;8.834;2022-08-19T11:06:17;12.18;;;9.95;;
72335;SDS011;62171;48.446;8.834;2022-08-19T11:08:44;13.82;;;10.63;;
72335;SDS011;62171;48.446;8.834;2022-08-19T11:11:10;13.93;;;10.35;;
72335;SDS011;62171;48.446;8.834;2022-08-19T11:13:37;11.68;;;9.70;;
72335;SDS011;62171;48.446;8.834;2022-08-19T11:18:42;13.95;;;10.27;;
72335;SDS011;62171;48.446;8.834;2022-08-19T11:21:14;11.10;;;9.73;;
72335;SDS011;62171;48.446;8.834;2022-08-19T11:23:44;12.23;;;10.82;;
72335;SDS011;62171;48.446;8.834;2022-08-19T11:26:10;12.75;;;9.73;;
72335;SDS011;62171;48.446;8.834;2022-08-19T11:28:36;11.13;;;10.02;;
72335;SDS011;62171;48.446;8.834;2022-08-19T11:31:01;12.70;;;11.40;;
72335;SDS011;62171;48.446;8.834;2022-08-19T11:33:28;13.55;;;10.27;;
72335;SDS011;62171;48.446;8.834;2022-08-19T11:35:56;13.32;;;11.57;;
72335;SDS011;62171;48.446;8.834;2022-08-19T11:38:23;13.18;;;9.63;;
72335;SDS011;62171;48.446;8.834;2022-08-19T11:40:55;11.20;;;9.73;;
72335;SDS011;62171;48.446;8.834;2022-08-19T11:43:22;14.43;;;10.07;;
72335;SDS011;62171;48.446;8.834;2022-08-19T11:45:47;11.48;;;10.27;;
72335;SDS011;62171;48.446;8.834;2022-08-19T11:48:13;13.88;;;10.10;;
72335;SDS011;62171;48.446;8.834;2022-08-19T11:50:38;12.68;;;10.40;;
72335;SDS011;62171;48.446;8.834;2022-08-19T11:53:08;11.93;;;10.50;;
72335;SDS011;62171;48.446;8.834;2022-08-19T11:55:36;14.55;;;10.68;;
72335;SDS011;62171;48.446;8.834;2022-08-19T11:58:04;14.88;;;11.02;;
72335;SDS011;62171;48.446;8.834;2022-08-19T12:00:31;12.93;;;10.70;;
72335;SDS011;62171;48.446;8.834;2022-08-19T12:03:00;14.18;;;11.82;;
72335;SDS011;62171;48.446;8.834;2022-08-19T12:05:26;16.30;;;11.65;;
72335;SDS011;62171;48.446;8.834;2022-08-19T12:07:51;12.52;;;9.80;;
72335;SDS011;62171;48.446;8.834;2022-08-19T12:10:17;16.20;;;11.27;;
72335;SDS011;62171;48.446;8.834;2022-08-19T12:12:42;15.80;;;12.05;;
72335;SDS011;62171;48.446;8.834;2022-08-19T12:15:10;17.08;;;12.38;;
72335;SDS011;62171;48.446;8.834;2022-08-19T12:17:36;17.45;;;12.45;;
72335;SDS011;62171;48.446;8.834;2022-08-19T12:20:03;16.38;;;12.57;;
72335;SDS011;62171;48.446;8.834;2022-08-19T12:22:30;16.25;;;12.63;;
72335;SDS011;62171;48.446;8.834;2022-08-19T12:24:55;20.50;;;12.52;;
72335;SDS011;62171;48.446;8.834;2022-08-19T12:27:21;13.90;;;11.70;;
72335;SDS011;62171;48.446;8.834;2022-08-19T12:29:46;17.33;;;12.25;;
72335;SDS011;62171;48.446;8.834;2022-08-19T12:32:12;15.15;;;11.73;;
72335;SDS011;62171;48.446;8.834;2022-08-19T12:34:38;14.98;;;11.75;;
72335;SDS011;62171;48.446;8.834;2022-08-19T12:37:05;16.13;;;11.88;;
72335;SDS011;62171;48.446;8.834;2022-08-19T12:39:34;15.40;;;12.27;;
72335;SDS011;62171;48.446;8.834;2022-08-19T12:42:01;16.92;;;11.90;;
72335;SDS011;62171;48.446;8.834;2022-08-19T12:44:26;17.13;;;13.70;;
72335;SDS011;62171;48.446;8.834;2022-08-19T12:46:51;15.80;;;11.60;;
72335;SDS011;62171;48.446;8.834;2022-08-19T12:49:17;15.57;;;12.00;;
72335;SDS011;62171;48.446;8.834;2022-08-19T12:51:42;16.60;;;12.52;;
72335;SDS011;62171;48.446;8.834;2022-08-19T12:54:08;13.82;;;11.50;;
72335;SDS011;62171;48.446;8.834;2022-08-19T12:56:33;15.70;;;11.70;;
72335;SDS011;62171;48.446;8.834;2022-08-19T12:59:02;18.77;;;12.73;;
72335;SDS011;62171;48.446;8.834;2022-08-19T13:01:29;16.70;;;12.38;;
72335;SDS011;62171;48.446;8.834;2022-08-19T13:03:57;17.50;;;12.63;;
72335;SDS011;62171;48.446;8.834;2022-08-19T13:06:23;15.73;;;12.23;;
72335;SDS011;62171;48.446;8.834;2022-08-19T13:08:49;17.13;;;12.98;;
72335;SDS011;62171;48.446;8.834;2022-08-19T13:11:17;18.95;;;13.07;;
72335;SDS011;62171;48.446;8.834;2022-08-19T13:13:44;17.42;;;12.35;;
72335;SDS011;62171;48.446;8.834;2022-08-19T13:16:11;17.30;;;13.32;;
72335;SDS011;62171;48.446;8.834;2022-08-19T13:18:38;17.80;;;13.02;;
72335;SDS011;62171;48.446;8.834;2022-08-19T13:21:06;17.80;;;13.57;;
72335;SDS011;62171;48.446;8.834;2022-08-19T13:23:33;19.33;;;13.82;;
72335;SDS011;62171;48.446;8.834;2022-08-19T13:26:01;19.50;;;14.18;;
72335;SDS011;62171;48.446;8.834;2022-08-19T13:28:29;19.05;;;14.10;;
72335;SDS011;62171;48.446;8.834;2022-08-19T13:31:17;18.75;;;14.02;;
72335;SDS011;62171;48.446;8.834;2022-08-19T13:34:02;20.80;;;13.82;;
72335;SDS011;62171;48.446;8.834;2022-08-19T13:36:30;19.27;;;14.70;;
72335;SDS011;62171;48.446;8.834;2022-08-19T13:38:59;19.65;;;14.82;;
72335;SDS011;62171;48.446;8.834;2022-08-19T13:41:25;21.33;;;15.38;;
72335;SDS011;62171;48.446;8.834;2022-08-19T13:43:53;20.90;;;16.02;;
72335;SDS011;62171;48.446;8.834;2022-08-19T13:46:19;20.17;;;15.90;;
72335;SDS011;62171;48.446;8.834;2022-08-19T13:48:45;17.55;;;13.52;;
72335;SDS011;62171;48.446;8.834;2022-08-19T13:51:11;18.67;;;14.43;;
72335;SDS011;62171;48.446;8.834;2022-08-19T13:53:37;16.60;;;13.98;;
72335;SDS011;62171;48.446;8.834;2022-08-19T13:56:07;17.33;;;13.52;;
72335;SDS011;62171;48.446;8.834;2022-08-19T13:58:33;16.30;;;13.30;;
72335;SDS011;62171;48.446;8.834;2022-08-19T14:00:59;18.92;;;13.18;;
72335;SDS011;62171;48.446;8.834;2022-08-19T14:03:25;18.92;;;12.93;;
72335;SDS011;62171;48.446;8.834;2022-08-19T14:05:51;18.45;;;15.20;;
72335;SDS011;62171;48.446;8.834;2022-08-19T14:08:16;15.00;;;12.10;;
72335;SDS011;62171;48.446;8.834;2022-08-19T14:10:43;26.50;;;19.80;;
72335;SDS011;62171;48.446;8.834;2022-08-19T14:13:09;11.57;;;10.32;;
72335;SDS011;62171;48.446;8.834;2022-08-19T14:15:35;15.65;;;9.93;;
72335;SDS011;62171;48.446;8.834;2022-08-19T14:18:02;13.98;;;8.32;;
72335;SDS011;62171;48.446;8.834;2022-08-19T14:20:27;9.05;;;7.88;;
72335;SDS011;62171;48.446;8.834;2022-08-19T14:22:53;9.85;;;8.48;;
72335;SDS011;62171;48.446;8.834;2022-08-19T14:25:22;8.82;;;7.93;;
72335;SDS011;62171;48.446;8.834;2022-08-19T14:27:49;11.57;;;8.52;;
72335;SDS011;62171;48.446;8.834;2022-08-19T14:30:20;8.25;;;7.45;;
72335;SDS011;62171;48.446;8.834;2022-08-19T14:32:49;8.05;;;7.25;;
72335;SDS011;62171;48.446;8.834;2022-08-19T14:35:15;8.00;;;7.20;;
72335;SDS011;62171;48.446;8.834;2022-08-19T14:37:41;7.80;;;6.97;;
72335;SDS011;62171;48.446;8.834;2022-08-19T14:40:09;8.65;;;7.00;;
72335;SDS011;62171;48.446;8.834;2022-08-19T14:42:35;7.90;;;7.10;;